createdAt,value
2016-09-13T05:18:57.499Z,10
2016-09-13T05:19:29.817Z,10
2016-09-13T05:20:02.120Z,10
2016-09-13T05:20:34.445Z,10
2016-09-13T05:21:06.776Z,10
2016-09-13T05:21:39.109Z,10
2016-09-13T05:22:11.442Z,10
2016-09-13T05:22:43.747Z,10
2016-09-13T05:23:16.072Z,10
2016-09-13T05:23:48.399Z,10
2016-09-13T05:24:20.734Z,10
2016-09-13T05:24:53.062Z,10
2016-09-13T05:25:25.365Z,10
2016-09-13T05:25:58.031Z,10
2016-09-13T05:26:30.332Z,10
2016-09-13T05:27:02.642Z,10
2016-09-13T05:27:34.953Z,10
2016-09-13T05:28:07.283Z,10
2016-09-13T05:28:39.619Z,10
2016-09-13T05:29:11.924Z,15
2016-09-13T05:29:44.244Z,15
2016-09-13T05:30:16.575Z,15
2016-09-13T05:30:48.899Z,15
2016-09-13T05:31:21.203Z,15
2016-09-13T05:31:53.532Z,15
2016-09-13T05:32:25.851Z,15
2016-09-13T05:32:58.169Z,15
2016-09-13T05:33:30.484Z,15
2016-09-13T05:34:02.811Z,15
2016-09-13T05:34:35.105Z,15
2016-09-13T05:35:07.428Z,15
2016-09-13T05:35:39.752Z,15
2016-09-13T05:36:12.076Z,15
2016-09-13T05:36:44.393Z,15
2016-09-13T05:37:16.713Z,15
2016-09-13T05:37:49.042Z,15
2016-09-13T05:38:21.360Z,15
2016-09-13T05:38:53.679Z,15
2016-09-13T05:39:26.001Z,20
2016-09-13T05:39:58.330Z,20
2016-09-13T05:40:30.644Z,20
2016-09-13T05:41:03.031Z,20
2016-09-13T05:41:35.563Z,20
2016-09-13T05:42:07.908Z,20
2016-09-13T05:42:40.243Z,20
2016-09-13T05:43:12.564Z,20
2016-09-13T05:43:44.889Z,20
2016-09-13T05:44:17.210Z,20
2016-09-13T05:44:49.532Z,20
2016-09-13T05:45:21.848Z,20
2016-09-13T05:45:54.181Z,20
2016-09-13T05:46:26.530Z,20
2016-09-13T05:46:58.851Z,20
2016-09-13T05:47:31.434Z,20
2016-09-13T05:48:04.050Z,20
2016-09-13T05:48:36.618Z,20
2016-09-13T05:49:09.200Z,20
2016-09-13T05:49:41.776Z,20
2016-09-13T05:50:14.351Z,25
2016-09-13T05:50:46.998Z,25
2016-09-13T05:51:19.549Z,25
2016-09-13T05:51:52.144Z,25
2016-09-13T05:52:24.737Z,30
2016-09-13T05:52:57.305Z,35
2016-09-13T05:53:29.895Z,35
2016-09-13T05:54:02.242Z,35
2016-09-13T05:54:36.121Z,35
2016-09-13T05:55:08.661Z,35
2016-09-13T05:55:41.242Z,40
2016-09-13T05:56:13.597Z,40
2016-09-13T05:56:46.487Z,40
2016-09-13T05:57:18.814Z,40
2016-09-13T05:57:51.218Z,40
2016-09-13T05:58:23.543Z,40
2016-09-13T05:58:55.873Z,40
2016-09-13T05:59:28.180Z,40
2016-09-13T06:00:00.500Z,40
2016-09-13T06:00:32.831Z,40
2016-09-13T06:01:05.161Z,45
2016-09-13T06:01:37.510Z,45
2016-09-13T06:02:09.840Z,45
2016-09-13T06:02:42.168Z,45
2016-09-13T06:03:14.485Z,45
2016-09-13T06:03:46.810Z,45
2016-09-13T06:04:19.132Z,45
2016-09-13T06:04:51.448Z,45
2016-09-13T06:05:24.741Z,45
2016-09-13T06:05:58.183Z,50
2016-09-13T06:06:31.725Z,50
2016-09-13T06:07:05.160Z,50
2016-09-13T06:07:38.579Z,50
2016-09-13T06:08:12.634Z,50
2016-09-13T06:08:47.287Z,50
2016-09-13T06:09:20.601Z,50
2016-09-13T06:09:54.275Z,50
2016-09-13T06:10:34.640Z,50
2016-09-13T06:11:18.149Z,55
2016-09-13T06:11:58.644Z,55
2016-09-13T06:13:46.642Z,55
2016-09-13T06:14:27.637Z,55
2016-09-13T06:15:06.145Z,55
2016-09-13T06:15:45.162Z,55
2016-09-13T06:16:18.138Z,60
2016-09-13T06:16:54.619Z,60
2016-09-13T06:17:27.126Z,60
2016-09-13T06:18:02.232Z,60
2016-09-13T06:18:36.827Z,60
2016-09-13T06:19:10.735Z,60
2016-09-13T06:19:45.767Z,60
2016-09-13T06:20:18.953Z,60
2016-09-13T06:20:53.151Z,60
2016-09-13T06:21:26.137Z,60
2016-09-13T06:22:00.512Z,65
2016-09-13T06:22:32.920Z,65
2016-09-13T06:23:05.257Z,65
2016-09-13T06:23:37.880Z,65
2016-09-13T06:24:10.204Z,65
2016-09-13T06:24:42.528Z,65
2016-09-13T06:25:14.976Z,65
2016-09-13T06:25:47.301Z,65
2016-09-13T06:26:19.738Z,65
2016-09-13T06:26:52.164Z,65
2016-09-13T06:27:24.523Z,65
2016-09-13T06:27:57.559Z,65
2016-09-13T06:28:29.888Z,70
2016-09-13T06:29:02.257Z,70
2016-09-13T06:29:34.591Z,70
2016-09-13T06:30:06.898Z,70
2016-09-13T06:30:39.380Z,70
2016-09-13T06:31:11.775Z,70
2016-09-13T06:31:44.103Z,70
2016-09-13T06:32:16.429Z,70
2016-09-13T06:32:48.813Z,70
2016-09-13T06:33:21.131Z,70
2016-09-13T06:33:53.461Z,70
2016-09-13T06:34:25.772Z,70
2016-09-13T06:34:58.105Z,70
2016-09-13T06:35:31.076Z,70
2016-09-13T06:36:03.400Z,75
2016-09-13T06:36:35.709Z,75
2016-09-13T06:37:08.035Z,75
2016-09-13T06:37:40.663Z,75
2016-09-13T06:38:13.550Z,75
2016-09-13T06:38:46.735Z,75
2016-09-13T06:39:19.634Z,75
2016-09-13T06:39:54.668Z,75
2016-09-13T06:40:27.567Z,75
2016-09-13T06:41:01.204Z,75
2016-09-13T06:41:34.811Z,75
2016-09-13T06:42:07.562Z,75
2016-09-13T06:42:40.560Z,75
2016-09-13T06:43:13.422Z,80
2016-09-13T06:43:46.813Z,80
2016-09-13T06:44:19.827Z,80
2016-09-13T06:44:52.815Z,80
2016-09-13T06:45:25.891Z,80
2016-09-13T06:45:59.370Z,80
2016-09-13T06:46:33.331Z,80
2016-09-13T06:47:09.158Z,80
2016-09-13T06:47:41.909Z,80
2016-09-13T06:48:15.102Z,80
2016-09-13T06:48:53.172Z,80
2016-09-13T06:49:28.296Z,80
2016-09-13T06:50:01.349Z,80
2016-09-13T06:50:34.461Z,80
2016-09-13T06:51:08.185Z,80
2016-09-13T06:51:41.012Z,80
2016-09-13T06:52:14.945Z,85
2016-09-13T06:52:47.931Z,85
2016-09-13T06:53:21.789Z,85
2016-09-13T06:53:54.969Z,85
2016-09-13T06:54:29.830Z,85
2016-09-13T06:55:02.618Z,85
2016-09-13T06:55:35.683Z,85
2016-09-13T06:56:10.160Z,85
2016-09-13T06:56:43.235Z,85
2016-09-13T06:57:16.052Z,85
2016-09-13T06:57:49.113Z,85
2016-09-13T06:58:22.725Z,85
2016-09-13T06:58:56.249Z,85
2016-09-13T06:59:31.435Z,85
2016-09-13T07:00:04.870Z,85
2016-09-13T07:00:41.163Z,85
2016-09-13T07:01:14.697Z,85
2016-09-13T07:01:48.294Z,85
2016-09-13T07:02:21.825Z,90
2016-09-13T07:02:54.354Z,90
2016-09-13T07:03:26.863Z,90
2016-09-13T07:04:00.883Z,90
2016-09-13T07:04:33.470Z,90
2016-09-13T07:05:06.076Z,90
2016-09-13T07:05:39.787Z,90
2016-09-13T07:06:12.810Z,90
2016-09-13T07:06:45.975Z,90
2016-09-13T07:07:20.666Z,90
2016-09-13T07:07:54.355Z,90
2016-09-13T07:08:28.910Z,90
2016-09-13T07:09:02.052Z,90
2016-09-13T07:09:34.703Z,90
2016-09-13T07:10:07.650Z,90
2016-09-13T07:10:43.236Z,90
2016-09-13T07:11:16.803Z,90
2016-09-13T07:11:52.034Z,90
2016-09-13T07:12:25.902Z,90
2016-09-13T07:12:59.670Z,90
2016-09-13T07:13:35.227Z,90
2016-09-13T07:14:08.144Z,90
2016-09-13T07:14:40.807Z,90
2016-09-13T07:15:14.353Z,90
2016-09-13T07:15:48.148Z,90
2016-09-13T07:16:20.787Z,90
2016-09-13T07:16:55.223Z,90
2016-09-13T07:17:27.792Z,90
2016-09-13T07:18:01.805Z,90
2016-09-13T07:18:34.727Z,90
2016-09-13T07:19:08.180Z,90
2016-09-13T07:19:42.683Z,90
2016-09-13T07:20:17.178Z,95
2016-09-13T07:20:50.660Z,95
2016-09-13T07:21:25.146Z,95
2016-09-13T07:22:01.568Z,95
2016-09-13T07:22:35.718Z,95
2016-09-13T07:23:11.821Z,95
2016-09-13T07:23:45.875Z,95
2016-09-13T07:24:21.410Z,95
2016-09-13T07:24:55.175Z,95
2016-09-13T07:25:29.206Z,95
2016-09-13T07:26:04.287Z,95
2016-09-13T07:26:42.634Z,95
2016-09-13T07:27:18.190Z,95
2016-09-13T07:27:50.969Z,95
2016-09-13T07:28:25.415Z,95
2016-09-13T07:28:59.494Z,95
2016-09-13T07:29:33.827Z,95
2016-09-13T07:30:06.900Z,95
2016-09-13T07:30:39.803Z,95
2016-09-13T07:31:12.581Z,95
2016-09-13T07:31:45.809Z,95
2016-09-13T07:32:18.691Z,95
2016-09-13T07:32:52.247Z,95
2016-09-13T07:33:25.025Z,95
2016-09-13T07:33:57.900Z,95
2016-09-13T07:34:32.292Z,95
2016-09-13T07:35:04.884Z,95
2016-09-13T07:35:37.296Z,95
2016-09-13T07:36:10.051Z,95
2016-09-13T07:36:42.778Z,95
2016-09-13T07:37:15.441Z,95
2016-09-13T07:37:48.294Z,95
2016-09-13T07:38:21.670Z,95
2016-09-13T07:38:55.195Z,95
2016-09-13T07:39:30.993Z,95
2016-09-13T07:40:04.819Z,95
2016-09-13T07:40:38.205Z,95
2016-09-13T07:41:13.170Z,95
2016-09-13T07:41:45.805Z,95
2016-09-13T07:42:19.124Z,95
2016-09-13T07:42:52.197Z,95
2016-09-13T07:43:24.685Z,95
2016-09-13T07:43:57.119Z,95
2016-09-13T07:44:31.208Z,95
2016-09-13T07:45:03.603Z,95
2016-09-13T07:45:36.070Z,95
2016-09-13T07:46:08.780Z,95
2016-09-13T07:46:41.724Z,95
2016-09-13T07:47:14.317Z,95
2016-09-13T07:47:46.673Z,95
2016-09-13T07:48:19.034Z,95
2016-09-13T07:48:52.134Z,95
2016-09-13T07:49:24.505Z,95
2016-09-13T07:49:58.600Z,95
2016-09-13T07:50:30.983Z,95
2016-09-13T07:51:03.323Z,95
2016-09-13T07:51:35.918Z,95
2016-09-13T07:52:08.335Z,95
2016-09-13T07:52:40.687Z,95
2016-09-13T07:53:13.070Z,95
2016-09-13T07:53:45.453Z,95
2016-09-13T07:54:18.658Z,95
2016-09-13T07:54:51.284Z,95
2016-09-13T07:55:23.821Z,95
2016-09-13T07:55:56.358Z,95
2016-09-13T07:56:28.673Z,95
2016-09-13T07:57:00.990Z,95
2016-09-13T07:57:33.332Z,95
2016-09-13T07:58:05.666Z,95
2016-09-13T07:59:12.963Z,95
2016-09-13T07:59:45.271Z,95
2016-09-13T08:00:19.714Z,95
2016-09-13T08:00:52.052Z,95
2016-09-13T08:01:25.388Z,95
2016-09-13T08:01:59.897Z,95
2016-09-13T08:02:32.391Z,95
2016-09-13T08:03:20.735Z,95
2016-09-13T08:04:02.218Z,95
2016-09-13T08:04:42.718Z,95
2016-09-13T08:05:23.709Z,95
2016-09-13T08:05:59.551Z,95
2016-09-13T08:06:32.845Z,95
2016-09-13T08:07:06.476Z,95
2016-09-13T08:07:41.172Z,95
2016-09-13T08:08:19.213Z,95
2016-09-13T08:08:55.625Z,95
2016-09-13T08:09:30.662Z,95
2016-09-13T08:10:08.860Z,95
2016-09-13T08:10:42.925Z,95
2016-09-13T08:11:20.726Z,95
2016-09-13T08:11:53.168Z,95
2016-09-13T08:12:32.460Z,95
2016-09-13T08:13:05.158Z,95
2016-09-13T08:13:37.526Z,95
2016-09-13T08:14:11.193Z,95
2016-09-13T08:14:47.213Z,95
2016-09-13T08:15:20.611Z,95
2016-09-13T08:15:56.695Z,95
2016-09-13T08:16:30.220Z,95
2016-09-13T08:17:02.704Z,95
2016-09-13T08:17:36.192Z,95
2016-09-13T08:18:08.524Z,95
2016-09-13T08:18:42.359Z,95
2016-09-13T08:20:34.262Z,95
2016-09-13T08:21:06.646Z,95
2016-09-13T08:21:41.704Z,95
2016-09-13T08:22:14.266Z,95
2016-09-13T08:22:46.896Z,95
2016-09-13T08:23:20.148Z,95
2016-09-13T08:23:52.471Z,95
2016-09-13T08:24:24.952Z,95
2016-09-13T08:24:57.269Z,95
2016-09-13T08:25:29.586Z,95
2016-09-13T08:26:01.926Z,95
2016-09-13T08:26:34.276Z,95
2016-09-13T08:27:06.683Z,95
2016-09-13T08:27:39.800Z,95
2016-09-13T08:28:12.185Z,95
2016-09-13T08:28:44.512Z,95
2016-09-13T08:29:16.826Z,95
2016-09-13T08:29:49.139Z,95
2016-09-13T08:30:22.652Z,95
2016-09-13T08:30:54.977Z,95
2016-09-13T08:31:28.243Z,95
2016-09-13T08:32:01.645Z,95
2016-09-13T08:32:33.979Z,95
2016-09-13T08:33:06.302Z,95
2016-09-13T08:33:38.691Z,95
2016-09-13T08:34:13.142Z,95
2016-09-13T08:34:46.486Z,95
2016-09-13T08:35:24.234Z,90
2016-09-13T08:35:56.579Z,95
2016-09-13T08:36:28.912Z,90
2016-09-13T08:37:03.726Z,95
2016-09-13T08:37:39.320Z,90
2016-09-13T08:38:17.768Z,90
2016-09-13T08:38:50.176Z,90
2016-09-13T08:39:23.615Z,90
2016-09-13T08:39:56.062Z,90
2016-09-13T08:40:28.379Z,90
2016-09-13T08:41:00.705Z,90
2016-09-13T08:41:33.027Z,90
2016-09-13T08:42:05.356Z,90
2016-09-13T08:42:37.684Z,90
2016-09-13T08:43:10.009Z,90
2016-09-13T08:43:42.362Z,90
2016-09-13T08:44:14.724Z,90
2016-09-13T08:44:47.057Z,90
2016-09-13T08:45:19.392Z,90
2016-09-13T08:45:51.719Z,90
2016-09-13T08:46:24.069Z,90
2016-09-13T08:46:56.391Z,90
2016-09-13T08:47:28.728Z,90
2016-09-13T08:48:01.031Z,90
2016-09-13T08:48:33.369Z,90
2016-09-13T08:49:05.721Z,90
2016-09-13T08:49:38.040Z,90
2016-09-13T08:50:10.371Z,90
2016-09-13T08:50:42.695Z,90
2016-09-13T08:51:15.032Z,90
2016-09-13T08:51:47.916Z,90
2016-09-13T08:52:20.419Z,90
2016-09-13T08:52:57.239Z,90
2016-09-13T08:53:30.686Z,90
2016-09-13T08:54:07.304Z,95
2016-09-13T08:54:40.781Z,95
2016-09-13T08:55:15.417Z,95
2016-09-13T08:55:47.966Z,95
2016-09-13T08:56:20.448Z,95
2016-09-13T08:56:52.946Z,95
2016-09-13T08:57:26.849Z,95
2016-09-13T08:58:00.119Z,95
2016-09-13T08:58:33.002Z,95
2016-09-13T08:59:06.306Z,95
2016-09-13T08:59:41.110Z,95
2016-09-13T09:00:21.754Z,95
2016-09-13T09:00:57.709Z,95
2016-09-13T09:01:33.766Z,95
2016-09-13T09:02:09.904Z,95
2016-09-13T09:02:46.455Z,95
2016-09-13T09:03:20.232Z,95
2016-09-13T09:03:55.273Z,95
2016-09-13T09:04:34.261Z,95
2016-09-13T09:05:07.926Z,95
2016-09-13T09:05:40.447Z,95
2016-09-13T09:06:13.771Z,95
2016-09-13T09:06:46.200Z,95
2016-09-13T09:07:19.399Z,95
2016-09-13T09:07:51.787Z,95
2016-09-13T09:08:24.110Z,95
2016-09-13T09:08:56.498Z,95
2016-09-13T09:09:29.086Z,95
2016-09-13T09:10:01.432Z,95
2016-09-13T09:10:33.889Z,95
2016-09-13T09:11:08.685Z,95
2016-09-13T09:11:45.761Z,95
2016-09-13T09:12:18.153Z,95
2016-09-13T09:12:55.778Z,95
2016-09-13T09:13:30.995Z,95
2016-09-13T09:14:05.079Z,95
2016-09-13T09:14:38.704Z,95
2016-09-13T09:15:12.459Z,95
2016-09-13T09:15:46.629Z,95
2016-09-13T09:16:22.755Z,95
2016-09-13T09:16:55.633Z,95
2016-09-13T09:17:28.642Z,95
2016-09-13T09:18:00.996Z,95
2016-09-13T09:18:33.486Z,95
2016-09-13T09:19:05.923Z,95
2016-09-13T09:19:39.265Z,95
2016-09-13T09:20:14.269Z,95
2016-09-13T09:20:49.185Z,95
2016-09-13T09:21:22.199Z,95
2016-09-13T09:21:58.281Z,95
2016-09-13T09:22:31.772Z,95
2016-09-13T09:23:06.472Z,95
2016-09-13T09:23:41.781Z,95
2016-09-13T09:24:14.850Z,95
2016-09-13T09:24:47.421Z,95
2016-09-13T09:25:19.762Z,95
2016-09-13T09:25:52.107Z,95
2016-09-13T09:26:24.463Z,95
2016-09-13T09:26:56.764Z,95
2016-09-13T09:27:29.097Z,95
2016-09-13T09:28:01.417Z,95
2016-09-13T09:28:33.728Z,95
2016-09-13T09:29:06.077Z,95
2016-09-13T09:29:38.397Z,95
2016-09-13T09:30:10.722Z,95
2016-09-13T09:30:43.080Z,100
2016-09-13T09:31:15.411Z,100
2016-09-13T09:31:47.733Z,100
2016-09-13T09:32:20.066Z,100
2016-09-13T09:32:52.387Z,100
2016-09-13T09:33:24.702Z,100
2016-09-13T09:33:57.050Z,100
2016-09-13T09:34:29.391Z,100
2016-09-13T09:35:01.713Z,100
2016-09-13T09:35:34.050Z,100
2016-09-13T09:36:06.365Z,100
2016-09-13T09:36:38.695Z,100
2016-09-13T09:37:11.000Z,100
2016-09-13T09:37:43.314Z,100
2016-09-13T09:38:15.642Z,100
2016-09-13T09:38:47.962Z,100
2016-09-13T09:39:20.277Z,100
2016-09-13T09:39:52.604Z,100
2016-09-13T09:40:24.936Z,100
2016-09-13T09:40:57.912Z,100
2016-09-13T09:41:30.235Z,100
2016-09-13T09:42:02.546Z,100
2016-09-13T09:42:35.658Z,100
2016-09-13T09:43:07.994Z,100
2016-09-13T09:43:41.167Z,100
2016-09-13T09:44:13.481Z,100
2016-09-13T09:44:45.806Z,100
2016-09-13T09:45:18.123Z,100
2016-09-13T09:45:50.429Z,105
2016-09-13T09:46:22.765Z,105
2016-09-13T09:46:55.087Z,105
2016-09-13T09:47:27.414Z,105
2016-09-13T09:47:59.733Z,105
2016-09-13T09:48:32.043Z,105
2016-09-13T09:49:04.352Z,105
2016-09-13T09:49:36.671Z,105
2016-09-13T09:50:09.000Z,105
2016-09-13T09:50:41.302Z,105
2016-09-13T09:51:14.304Z,105
2016-09-13T09:51:46.673Z,105
2016-09-13T09:52:19.697Z,105
2016-09-13T09:53:00.332Z,105
2016-09-13T09:53:38.801Z,105
2016-09-13T09:54:27.294Z,110
2016-09-13T09:55:13.803Z,110
2016-09-13T09:55:50.036Z,110
2016-09-13T09:56:33.806Z,110
2016-09-13T09:57:14.804Z,110
2016-09-13T09:57:59.311Z,110
2016-09-13T09:58:55.307Z,110
2016-09-13T09:59:42.820Z,110
2016-09-13T10:00:37.800Z,110
2016-09-13T10:01:16.806Z,110
2016-09-13T10:01:58.299Z,115
2016-09-13T10:02:54.305Z,115
2016-09-13T10:03:44.331Z,115
2016-09-13T10:04:27.857Z,115
2016-09-13T10:05:12.821Z,115
2016-09-13T10:05:55.823Z,115
2016-09-13T10:06:34.812Z,115
2016-09-13T10:07:17.313Z,115
2016-09-13T10:08:00.312Z,115
2016-09-13T10:08:42.804Z,120
2016-09-13T10:09:25.816Z,120
2016-09-13T10:10:09.813Z,120
2016-09-13T10:10:58.312Z,120
2016-09-13T10:11:43.801Z,120
2016-09-13T10:12:22.252Z,120
2016-09-13T10:13:02.812Z,120
2016-09-13T10:13:44.323Z,120
2016-09-13T10:14:26.299Z,120
2016-09-13T10:15:03.797Z,120
2016-09-13T10:15:44.825Z,125
2016-09-13T10:16:19.828Z,125
2016-09-13T10:16:59.820Z,125
2016-09-13T10:17:36.318Z,125
2016-09-13T10:18:28.799Z,125
2016-09-13T10:19:06.331Z,125
2016-09-13T10:19:41.317Z,125
2016-09-13T10:20:15.470Z,125
2016-09-13T10:20:49.416Z,125
2016-09-13T10:21:21.816Z,125
2016-09-13T10:21:54.135Z,130
2016-09-13T10:22:28.338Z,130
2016-09-13T10:23:02.400Z,130
2016-09-13T10:23:41.304Z,130
2016-09-13T10:24:18.822Z,130
2016-09-13T10:24:53.809Z,130
2016-09-13T10:25:33.978Z,130
2016-09-13T10:26:08.313Z,130
2016-09-13T10:26:41.327Z,130
2016-09-13T10:27:13.653Z,130
2016-09-13T10:27:45.982Z,130
2016-09-13T10:28:18.305Z,135
2016-09-13T10:28:50.605Z,135
2016-09-13T10:29:23.790Z,135
2016-09-13T10:29:56.126Z,135
2016-09-13T10:30:29.310Z,135
2016-09-13T10:31:03.453Z,135
2016-09-13T10:31:40.308Z,135
2016-09-13T10:32:14.835Z,135
2016-09-13T10:32:47.169Z,135
2016-09-13T10:33:19.491Z,135
2016-09-13T10:33:51.823Z,140
2016-09-13T10:34:25.322Z,140
2016-09-13T10:35:00.276Z,140
2016-09-13T10:35:32.589Z,140
2016-09-13T10:36:07.408Z,140
2016-09-13T10:36:39.725Z,140
2016-09-13T10:37:12.056Z,140
2016-09-13T10:37:45.325Z,145
2016-09-13T10:38:17.672Z,145
2016-09-13T10:38:51.327Z,145
2016-09-13T10:39:23.763Z,145
2016-09-13T10:39:56.878Z,145
2016-09-13T10:40:30.832Z,145
2016-09-13T10:41:04.829Z,150
2016-09-13T10:41:41.966Z,150
2016-09-13T10:42:16.022Z,150
2016-09-13T10:42:55.327Z,150
2016-09-13T10:43:36.351Z,150
2016-09-13T10:44:14.836Z,155
2016-09-13T10:45:05.338Z,155
2016-09-13T10:45:58.336Z,155
2016-09-13T10:46:43.333Z,155
2016-09-13T10:47:28.334Z,155
2016-09-13T10:48:10.446Z,160
2016-09-13T10:48:54.330Z,160
2016-09-13T10:49:33.852Z,160
2016-09-13T10:50:20.352Z,160
2016-09-13T10:50:56.835Z,165
2016-09-13T10:51:55.842Z,165
2016-09-13T10:52:41.875Z,165
2016-09-13T10:53:29.344Z,170
2016-09-13T10:54:11.837Z,170
2016-09-13T10:54:49.565Z,170
2016-09-13T10:55:34.842Z,170
2016-09-13T10:56:19.832Z,175
2016-09-13T10:57:03.343Z,175
2016-09-13T10:57:49.350Z,175
2016-09-13T10:58:57.849Z,180
2016-09-13T10:59:47.350Z,180
2016-09-13T11:00:35.849Z,180
2016-09-13T11:01:15.852Z,185
2016-09-13T11:01:50.599Z,185
2016-09-13T11:02:30.337Z,185
2016-09-13T11:03:10.438Z,185
2016-09-13T11:03:47.852Z,185
2016-09-13T11:04:23.934Z,190
2016-09-13T11:04:59.625Z,190
2016-09-13T11:05:35.343Z,190
2016-09-13T11:06:11.366Z,195
2016-09-13T11:06:45.209Z,195
2016-09-13T11:07:23.145Z,195
2016-09-13T11:07:56.530Z,195
2016-09-13T11:08:31.351Z,195
2016-09-13T11:09:04.346Z,200
2016-09-13T11:09:36.654Z,200
2016-09-13T11:10:08.981Z,200
2016-09-13T11:10:41.296Z,200
2016-09-13T11:11:13.617Z,205
2016-09-13T11:11:45.941Z,205
2016-09-13T11:12:18.265Z,205
2016-09-13T11:12:50.608Z,210
2016-09-13T11:13:22.936Z,210
2016-09-13T11:13:55.263Z,210
2016-09-13T11:14:27.577Z,210
2016-09-13T11:14:59.891Z,215
2016-09-13T11:15:32.194Z,215
2016-09-13T11:16:04.513Z,215
2016-09-13T11:16:36.840Z,220
2016-09-13T11:17:09.164Z,220
2016-09-13T11:17:41.507Z,225
2016-09-13T11:18:13.838Z,225
2016-09-13T11:18:46.162Z,225
2016-09-13T11:19:18.598Z,225
2016-09-13T11:19:50.932Z,225
2016-09-13T11:20:23.263Z,225
2016-09-13T11:20:55.607Z,225
2016-09-13T11:21:27.978Z,230
2016-09-13T11:22:00.295Z,230
2016-09-13T11:22:32.624Z,235
2016-09-13T11:23:04.941Z,235
2016-09-13T11:23:37.288Z,235
2016-09-13T11:24:09.639Z,240
2016-09-13T11:24:41.963Z,240
2016-09-13T11:25:14.295Z,240
2016-09-13T11:25:46.637Z,245
2016-09-13T11:26:18.958Z,245
2016-09-13T11:26:51.276Z,250
2016-09-13T11:27:23.624Z,250
2016-09-13T11:27:55.945Z,255
2016-09-13T11:28:28.321Z,255
2016-09-13T11:29:04.374Z,260
2016-09-13T11:29:36.709Z,260
2016-09-13T11:30:09.079Z,260
2016-09-13T11:30:46.479Z,265
2016-09-13T11:31:25.904Z,265
2016-09-13T11:31:58.206Z,270
2016-09-13T11:32:30.783Z,275
2016-09-13T11:33:03.098Z,275
2016-09-13T11:33:35.414Z,280
2016-09-13T11:34:07.737Z,280
2016-09-13T11:34:40.127Z,280
2016-09-13T11:35:12.443Z,285
2016-09-13T11:35:44.773Z,285
2016-09-13T11:36:17.094Z,290
2016-09-13T11:36:49.472Z,290
2016-09-13T11:37:21.799Z,295
2016-09-13T11:37:54.146Z,295
2016-09-13T11:38:26.464Z,300
2016-09-13T11:38:58.782Z,305
2016-09-13T11:39:31.139Z,310
2016-09-13T11:40:03.461Z,310
2016-09-13T11:40:35.795Z,315
2016-09-13T11:41:08.122Z,315
2016-09-13T11:41:40.442Z,320
2016-09-13T11:42:12.776Z,320
2016-09-13T11:42:45.098Z,325
2016-09-13T11:43:17.425Z,330
2016-09-13T11:43:49.883Z,335
2016-09-13T11:44:22.212Z,335
2016-09-13T11:44:54.533Z,340
2016-09-13T11:45:26.842Z,340
2016-09-13T11:45:59.173Z,345
2016-09-13T11:46:31.500Z,345
2016-09-13T11:47:03.818Z,350
2016-09-13T11:47:36.139Z,350
2016-09-13T11:48:08.482Z,355
2016-09-13T11:48:40.808Z,360
2016-09-13T11:49:13.151Z,365
2016-09-13T11:49:45.458Z,370
2016-09-13T11:50:17.796Z,375
2016-09-13T11:50:50.126Z,380
2016-09-13T11:51:22.478Z,375
2016-09-13T11:51:54.788Z,375
2016-09-13T11:52:27.121Z,375
2016-09-13T11:52:59.459Z,380
2016-09-13T11:53:31.797Z,385
2016-09-13T11:54:04.132Z,385
2016-09-13T11:54:39.408Z,390
2016-09-13T11:55:11.750Z,395
2016-09-13T11:55:44.213Z,400
2016-09-13T11:56:17.280Z,400
2016-09-13T11:56:49.649Z,410
2016-09-13T11:57:21.981Z,415
2016-09-13T11:57:54.323Z,420
2016-09-13T11:58:26.650Z,420
2016-09-13T11:58:58.983Z,420
2016-09-13T11:59:31.323Z,430
2016-09-13T12:00:03.656Z,430
2016-09-13T12:00:35.985Z,435
2016-09-13T12:01:08.316Z,435
2016-09-13T12:01:40.649Z,440
2016-09-13T12:02:12.964Z,445
2016-09-13T12:02:45.281Z,455
2016-09-13T12:03:18.323Z,455
2016-09-13T12:03:50.656Z,460
2016-09-13T12:04:22.999Z,465
2016-09-13T12:04:55.335Z,465
2016-09-13T12:05:27.702Z,470
2016-09-13T12:06:00.016Z,475
2016-09-13T12:06:32.340Z,470
2016-09-13T12:07:05.346Z,475
2016-09-13T12:07:37.691Z,480
2016-09-13T12:08:10.015Z,485
2016-09-13T12:08:42.363Z,490
2016-09-13T12:09:14.687Z,490
2016-09-13T12:09:48.239Z,495
2016-09-13T12:10:20.576Z,500
2016-09-13T12:10:52.931Z,500
2016-09-13T12:11:25.264Z,505
2016-09-13T12:11:57.600Z,515
2016-09-13T12:12:29.910Z,515
2016-09-13T12:13:02.245Z,515
2016-09-13T12:13:34.595Z,520
2016-09-13T12:14:06.926Z,525
2016-09-13T12:14:39.245Z,525
2016-09-13T12:15:12.400Z,525
2016-09-13T12:15:44.733Z,535
2016-09-13T12:16:17.074Z,535
2016-09-13T12:16:49.393Z,535
2016-09-13T12:17:21.752Z,540
2016-09-13T12:17:54.217Z,545
2016-09-13T12:18:26.551Z,550
2016-09-13T12:18:58.867Z,550
2016-09-13T12:19:31.190Z,555
2016-09-13T12:20:03.550Z,555
2016-09-13T12:20:35.877Z,560
2016-09-13T12:21:08.207Z,565
2016-09-13T12:21:40.520Z,565
2016-09-13T12:22:12.845Z,570
2016-09-13T12:22:45.177Z,570
2016-09-13T12:23:17.485Z,570
2016-09-13T12:23:49.838Z,570
2016-09-13T12:24:22.187Z,575
2016-09-13T12:24:54.508Z,580
2016-09-13T12:25:28.362Z,585
2016-09-13T12:26:00.932Z,585
2016-09-13T12:26:33.255Z,580
2016-09-13T12:27:05.582Z,580
2016-09-13T12:27:37.908Z,580
2016-09-13T12:28:10.266Z,590
2016-09-13T12:28:42.605Z,590
2016-09-13T12:29:14.938Z,600
2016-09-13T12:29:47.276Z,605
2016-09-13T12:30:19.625Z,605
2016-09-13T12:30:51.951Z,600
2016-09-13T12:31:24.283Z,605
2016-09-13T12:31:57.922Z,610
2016-09-13T12:32:30.243Z,600
2016-09-13T12:33:02.570Z,605
2016-09-13T12:33:34.900Z,600
2016-09-13T12:34:08.265Z,605
2016-09-13T12:34:40.609Z,610
2016-09-13T12:35:12.934Z,610
2016-09-13T12:35:45.253Z,615
2016-09-13T12:36:17.588Z,620
2016-09-13T12:36:49.905Z,625
2016-09-13T12:37:22.255Z,625
2016-09-13T12:37:54.590Z,625
2016-09-13T12:38:26.930Z,635
2016-09-13T12:38:59.258Z,630
2016-09-13T12:39:31.593Z,625
2016-09-13T12:40:03.902Z,630
2016-09-13T12:40:36.242Z,640
2016-09-13T12:41:08.556Z,630
2016-09-13T12:41:41.787Z,625
2016-09-13T12:42:14.093Z,630
2016-09-13T12:42:46.453Z,635
2016-09-13T12:43:18.801Z,635
2016-09-13T12:43:52.878Z,640
2016-09-13T12:44:25.253Z,645
2016-09-13T12:44:57.589Z,650
2016-09-13T12:45:29.949Z,650
2016-09-13T12:46:02.288Z,635
2016-09-13T12:46:34.641Z,630
2016-09-13T12:47:06.974Z,640
2016-09-13T12:47:39.328Z,655
2016-09-13T12:48:12.407Z,655
2016-09-13T12:48:44.740Z,650
2016-09-13T12:49:17.084Z,645
2016-09-13T12:49:49.416Z,650
2016-09-13T12:50:21.750Z,655
2016-09-13T12:50:54.089Z,660
2016-09-13T12:51:26.441Z,660
2016-09-13T12:51:58.766Z,650
2016-09-13T12:52:31.114Z,645
2016-09-13T12:53:04.836Z,650
2016-09-13T12:53:37.164Z,655
2016-09-13T12:54:09.502Z,655
2016-09-13T12:54:41.826Z,660
2016-09-13T12:55:14.151Z,660
2016-09-13T12:55:46.467Z,655
2016-09-13T12:56:18.814Z,665
2016-09-13T12:56:51.155Z,665
2016-09-13T12:57:23.494Z,670
2016-09-13T12:57:55.831Z,685
2016-09-13T12:58:28.171Z,705
2016-09-13T12:59:00.492Z,765
2016-09-13T12:59:32.824Z,955
2016-09-13T13:00:05.182Z,1260
2016-09-13T13:00:37.529Z,1545
2016-09-13T13:01:09.846Z,1795
2016-09-13T13:01:42.159Z,1960
2016-09-13T13:02:14.487Z,1915
2016-09-13T13:02:46.841Z,1875
2016-09-13T13:03:19.172Z,1875
2016-09-13T13:03:51.491Z,1865
2016-09-13T13:04:23.814Z,1845
2016-09-13T13:04:56.148Z,1840
2016-09-13T13:05:28.466Z,1805
2016-09-13T13:06:00.794Z,1820
2016-09-13T13:06:33.118Z,1795
2016-09-13T13:07:05.458Z,1770
2016-09-13T13:07:37.819Z,1760
2016-09-13T13:08:10.146Z,1775
2016-09-13T13:08:42.478Z,1750
2016-09-13T13:09:14.778Z,1765
2016-09-13T13:09:47.091Z,1780
2016-09-13T13:10:19.423Z,1815
2016-09-13T13:10:51.767Z,1845
2016-09-13T13:11:24.091Z,1855
2016-09-13T13:11:56.419Z,1855
2016-09-13T13:12:28.766Z,1815
2016-09-13T13:13:01.099Z,1775
2016-09-13T13:13:33.430Z,1765
2016-09-13T13:14:05.753Z,1740
2016-09-13T13:14:38.090Z,1775
2016-09-13T13:15:10.408Z,1775
2016-09-13T13:15:42.741Z,1790
2016-09-13T13:16:15.075Z,1785
2016-09-13T13:16:47.399Z,1785
2016-09-13T13:17:19.740Z,1765
2016-09-13T13:17:52.057Z,1810